sensor_id;sensor_type;location;lat;lon;timestamp;P1;durP1;ratioP1;P2;durP2;ratioP2
12218;SDS011;6172;42.646;23.344;2023-09-19T00:00:16;5.27;;;2.40;;
12218;SDS011;6172;42.646;23.344;2023-09-19T00:02:45;3.83;;;2.80;;
12218;SDS011;6172;42.646;23.344;2023-09-19T00:05:13;2.93;;;2.33;;
12218;SDS011;6172;42.646;23.344;2023-09-19T00:07:40;3.60;;;2.90;;
12218;SDS011;6172;42.646;23.344;2023-09-19T00:10:07;3.67;;;2.80;;
12218;SDS011;6172;42.646;23.344;2023-09-19T00:12:35;5.27;;;2.80;;
12218;SDS011;6172;42.646;23.344;2023-09-19T00:15:04;4.50;;;3.17;;
12218;SDS011;6172;42.646;23.344;2023-09-19T00:17:31;4.40;;;3.20;;
12218;SDS011;6172;42.646;23.344;2023-09-19T00:20:00;6.33;;;3.03;;
12218;SDS011;6172;42.646;23.344;2023-09-19T00:22:39;3.67;;;3.00;;
12218;SDS011;6172;42.646;23.344;2023-09-19T00:25:06;3.00;;;2.67;;
12218;SDS011;6172;42.646;23.344;2023-09-19T00:27:34;3.07;;;2.77;;
12218;SDS011;6172;42.646;23.344;2023-09-19T00:30:07;5.60;;;2.97;;
12218;SDS011;6172;42.646;23.344;2023-09-19T00:32:39;5.37;;;3.17;;
12218;SDS011;6172;42.646;23.344;2023-09-19T00:35:07;3.70;;;3.07;;
12218;SDS011;6172;42.646;23.344;2023-09-19T00:37:35;3.80;;;2.60;;
12218;SDS011;6172;42.646;23.344;2023-09-19T00:40:03;3.97;;;3.20;;
12218;SDS011;6172;42.646;23.344;2023-09-19T00:42:30;4.70;;;3.50;;
12218;SDS011;6172;42.646;23.344;2023-09-19T00:44:58;4.70;;;3.50;;
12218;SDS011;6172;42.646;23.344;2023-09-19T00:47:30;7.27;;;3.63;;
12218;SDS011;6172;42.646;23.344;2023-09-19T00:49:57;3.83;;;3.13;;
12218;SDS011;6172;42.646;23.344;2023-09-19T00:52:24;6.90;;;3.50;;
12218;SDS011;6172;42.646;23.344;2023-09-19T00:54:52;5.20;;;3.10;;
12218;SDS011;6172;42.646;23.344;2023-09-19T00:57:19;4.17;;;3.53;;
12218;SDS011;6172;42.646;23.344;2023-09-19T00:59:48;5.80;;;3.07;;
12218;SDS011;6172;42.646;23.344;2023-09-19T01:02:20;3.60;;;3.30;;
12218;SDS011;6172;42.646;23.344;2023-09-19T01:04:49;4.13;;;3.10;;
12218;SDS011;6172;42.646;23.344;2023-09-19T01:07:16;3.90;;;3.17;;
12218;SDS011;6172;42.646;23.344;2023-09-19T01:10:02;3.20;;;2.90;;
12218;SDS011;6172;42.646;23.344;2023-09-19T01:12:36;5.00;;;2.90;;
12218;SDS011;6172;42.646;23.344;2023-09-19T01:15:12;6.50;;;3.20;;
12218;SDS011;6172;42.646;23.344;2023-09-19T01:17:45;4.07;;;3.10;;
12218;SDS011;6172;42.646;23.344;2023-09-19T01:20:19;4.07;;;3.30;;
12218;SDS011;6172;42.646;23.344;2023-09-19T01:22:56;3.40;;;3.10;;
12218;SDS011;6172;42.646;23.344;2023-09-19T01:25:42;4.63;;;3.67;;
12218;SDS011;6172;42.646;23.344;2023-09-19T01:28:31;5.93;;;3.73;;
12218;SDS011;6172;42.646;23.344;2023-09-19T01:31:06;4.77;;;3.43;;
12218;SDS011;6172;42.646;23.344;2023-09-19T01:33:56;6.37;;;4.00;;
12218;SDS011;6172;42.646;23.344;2023-09-19T01:36:24;4.53;;;3.40;;
12218;SDS011;6172;42.646;23.344;2023-09-19T01:38:52;4.23;;;3.40;;
12218;SDS011;6172;42.646;23.344;2023-09-19T01:41:21;5.30;;;3.40;;
12218;SDS011;6172;42.646;23.344;2023-09-19T01:43:57;4.17;;;3.43;;
12218;SDS011;6172;42.646;23.344;2023-09-19T01:46:33;5.83;;;3.67;;
12218;SDS011;6172;42.646;23.344;2023-09-19T01:49:05;5.13;;;4.00;;
12218;SDS011;6172;42.646;23.344;2023-09-19T01:51:46;5.27;;;4.40;;
12218;SDS011;6172;42.646;23.344;2023-09-19T01:54:27;5.37;;;4.50;;
12218;SDS011;6172;42.646;23.344;2023-09-19T01:57:00;4.63;;;4.07;;
12218;SDS011;6172;42.646;23.344;2023-09-19T01:59:35;5.63;;;4.70;;
12218;SDS011;6172;42.646;23.344;2023-09-19T02:02:09;5.83;;;5.23;;
12218;SDS011;6172;42.646;23.344;2023-09-19T02:04:40;6.70;;;4.87;;
12218;SDS011;6172;42.646;23.344;2023-09-19T02:07:07;5.40;;;4.50;;
12218;SDS011;6172;42.646;23.344;2023-09-19T02:09:34;5.67;;;5.07;;
12218;SDS011;6172;42.646;23.344;2023-09-19T02:12:04;5.93;;;4.90;;
12218;SDS011;6172;42.646;23.344;2023-09-19T02:14:32;6.80;;;5.33;;
12218;SDS011;6172;42.646;23.344;2023-09-19T02:17:00;5.80;;;5.20;;
12218;SDS011;6172;42.646;23.344;2023-09-19T02:19:29;6.60;;;5.57;;
12218;SDS011;6172;42.646;23.344;2023-09-19T02:21:57;6.30;;;5.43;;
12218;SDS011;6172;42.646;23.344;2023-09-19T02:24:27;6.20;;;5.57;;
12218;SDS011;6172;42.646;23.344;2023-09-19T02:27:27;6.40;;;4.97;;
12218;SDS011;6172;42.646;23.344;2023-09-19T02:29:55;12.70;;;5.13;;
12218;SDS011;6172;42.646;23.344;2023-09-19T02:32:22;8.13;;;6.00;;
12218;SDS011;6172;42.646;23.344;2023-09-19T02:34:51;5.67;;;5.17;;
12218;SDS011;6172;42.646;23.344;2023-09-19T02:37:18;6.60;;;5.80;;
12218;SDS011;6172;42.646;23.344;2023-09-19T02:39:45;9.00;;;5.67;;
12218;SDS011;6172;42.646;23.344;2023-09-19T02:42:12;7.73;;;5.40;;
12218;SDS011;6172;42.646;23.344;2023-09-19T02:44:40;6.53;;;5.37;;
12218;SDS011;6172;42.646;23.344;2023-09-19T02:47:07;8.17;;;5.10;;
12218;SDS011;6172;42.646;23.344;2023-09-19T02:49:34;6.60;;;5.93;;
12218;SDS011;6172;42.646;23.344;2023-09-19T02:52:03;6.23;;;5.03;;
12218;SDS011;6172;42.646;23.344;2023-09-19T02:54:32;6.10;;;5.50;;
12218;SDS011;6172;42.646;23.344;2023-09-19T02:56:59;14.10;;;6.10;;
12218;SDS011;6172;42.646;23.344;2023-09-19T02:59:28;7.53;;;5.63;;
12218;SDS011;6172;42.646;23.344;2023-09-19T03:01:56;7.67;;;5.27;;
12218;SDS011;6172;42.646;23.344;2023-09-19T03:04:25;7.87;;;5.83;;
12218;SDS011;6172;42.646;23.344;2023-09-19T03:06:52;7.13;;;5.73;;
12218;SDS011;6172;42.646;23.344;2023-09-19T03:09:25;8.70;;;5.53;;
12218;SDS011;6172;42.646;23.344;2023-09-19T03:11:52;8.80;;;5.93;;
12218;SDS011;6172;42.646;23.344;2023-09-19T03:14:19;8.60;;;5.60;;
12218;SDS011;6172;42.646;23.344;2023-09-19T03:16:49;8.13;;;5.90;;
12218;SDS011;6172;42.646;23.344;2023-09-19T03:19:17;6.87;;;5.13;;
12218;SDS011;6172;42.646;23.344;2023-09-19T03:21:46;6.77;;;5.77;;
12218;SDS011;6172;42.646;23.344;2023-09-19T03:24:14;8.43;;;6.07;;
12218;SDS011;6172;42.646;23.344;2023-09-19T03:26:43;11.53;;;6.50;;
12218;SDS011;6172;42.646;23.344;2023-09-19T03:29:10;10.77;;;6.10;;
12218;SDS011;6172;42.646;23.344;2023-09-19T03:31:38;8.63;;;6.10;;
12218;SDS011;6172;42.646;23.344;2023-09-19T03:34:05;6.53;;;4.77;;
12218;SDS011;6172;42.646;23.344;2023-09-19T03:36:33;11.07;;;6.10;;
12218;SDS011;6172;42.646;23.344;2023-09-19T03:39:00;10.67;;;5.70;;
12218;SDS011;6172;42.646;23.344;2023-09-19T03:41:30;10.37;;;5.70;;
12218;SDS011;6172;42.646;23.344;2023-09-19T03:43:59;7.23;;;5.10;;
12218;SDS011;6172;42.646;23.344;2023-09-19T03:46:26;8.97;;;5.50;;
12218;SDS011;6172;42.646;23.344;2023-09-19T03:48:55;6.90;;;5.23;;
12218;SDS011;6172;42.646;23.344;2023-09-19T03:51:24;6.20;;;5.40;;
12218;SDS011;6172;42.646;23.344;2023-09-19T03:53:51;7.60;;;5.47;;
12218;SDS011;6172;42.646;23.344;2023-09-19T03:56:18;8.10;;;4.93;;
12218;SDS011;6172;42.646;23.344;2023-09-19T03:58:45;9.63;;;5.17;;
12218;SDS011;6172;42.646;23.344;2023-09-19T04:01:13;8.70;;;5.53;;
12218;SDS011;6172;42.646;23.344;2023-09-19T04:03:42;7.00;;;5.40;;
12218;SDS011;6172;42.646;23.344;2023-09-19T04:06:12;7.80;;;5.70;;
12218;SDS011;6172;42.646;23.344;2023-09-19T04:08:40;5.90;;;4.90;;
12218;SDS011;6172;42.646;23.344;2023-09-19T04:11:08;7.43;;;5.13;;
12218;SDS011;6172;42.646;23.344;2023-09-19T04:13:35;12.77;;;6.13;;
12218;SDS011;6172;42.646;23.344;2023-09-19T04:16:03;13.57;;;5.93;;
12218;SDS011;6172;42.646;23.344;2023-09-19T04:18:33;5.47;;;4.97;;
12218;SDS011;6172;42.646;23.344;2023-09-19T04:21:03;7.70;;;5.40;;
12218;SDS011;6172;42.646;23.344;2023-09-19T04:23:31;6.43;;;5.43;;
12218;SDS011;6172;42.646;23.344;2023-09-19T04:25:58;5.87;;;5.30;;
12218;SDS011;6172;42.646;23.344;2023-09-19T04:28:26;7.97;;;6.00;;
12218;SDS011;6172;42.646;23.344;2023-09-19T04:30:54;9.67;;;6.30;;
12218;SDS011;6172;42.646;23.344;2023-09-19T04:33:21;8.17;;;6.33;;
12218;SDS011;6172;42.646;23.344;2023-09-19T04:35:50;7.57;;;5.80;;
12218;SDS011;6172;42.646;23.344;2023-09-19T04:38:17;9.47;;;6.17;;
12218;SDS011;6172;42.646;23.344;2023-09-19T04:40:44;16.67;;;7.03;;
12218;SDS011;6172;42.646;23.344;2023-09-19T04:43:12;7.50;;;6.07;;
12218;SDS011;6172;42.646;23.344;2023-09-19T04:45:40;8.90;;;6.20;;
12218;SDS011;6172;42.646;23.344;2023-09-19T04:48:07;9.93;;;6.30;;
12218;SDS011;6172;42.646;23.344;2023-09-19T04:50:36;9.30;;;6.40;;
12218;SDS011;6172;42.646;23.344;2023-09-19T04:53:05;10.50;;;6.10;;
12218;SDS011;6172;42.646;23.344;2023-09-19T04:55:32;15.87;;;6.90;;
12218;SDS011;6172;42.646;23.344;2023-09-19T04:57:59;12.03;;;6.63;;
12218;SDS011;6172;42.646;23.344;2023-09-19T05:00:26;16.97;;;11.83;;
12218;SDS011;6172;42.646;23.344;2023-09-19T05:02:56;26.73;;;19.13;;
12218;SDS011;6172;42.646;23.344;2023-09-19T05:05:23;27.40;;;22.87;;
12218;SDS011;6172;42.646;23.344;2023-09-19T05:07:53;35.73;;;32.20;;
12218;SDS011;6172;42.646;23.344;2023-09-19T05:10:24;14.70;;;11.17;;
12218;SDS011;6172;42.646;23.344;2023-09-19T05:12:52;11.77;;;7.50;;
12218;SDS011;6172;42.646;23.344;2023-09-19T05:15:20;10.67;;;8.53;;
12218;SDS011;6172;42.646;23.344;2023-09-19T05:17:50;13.03;;;7.70;;
12218;SDS011;6172;42.646;23.344;2023-09-19T05:20:19;9.73;;;6.60;;
12218;SDS011;6172;42.646;23.344;2023-09-19T05:22:50;8.60;;;6.80;;
12218;SDS011;6172;42.646;23.344;2023-09-19T05:25:25;10.40;;;6.27;;
12218;SDS011;6172;42.646;23.344;2023-09-19T05:27:55;8.37;;;6.20;;
12218;SDS011;6172;42.646;23.344;2023-09-19T05:30:24;10.07;;;6.13;;
12218;SDS011;6172;42.646;23.344;2023-09-19T05:32:52;8.07;;;5.40;;
12218;SDS011;6172;42.646;23.344;2023-09-19T05:35:23;9.65;;;5.55;;
12218;SDS011;6172;42.646;23.344;2023-09-19T05:37:51;10.77;;;5.50;;
12218;SDS011;6172;42.646;23.344;2023-09-19T05:40:18;7.57;;;4.68;;
12218;SDS011;6172;42.646;23.344;2023-09-19T05:42:47;6.88;;;4.75;;
12218;SDS011;6172;42.646;23.344;2023-09-19T05:45:15;7.82;;;5.22;;
12218;SDS011;6172;42.646;23.344;2023-09-19T05:47:47;5.72;;;4.20;;
12218;SDS011;6172;42.646;23.344;2023-09-19T05:50:16;6.68;;;3.85;;
12218;SDS011;6172;42.646;23.344;2023-09-19T05:52:50;3.70;;;3.33;;
12218;SDS011;6172;42.646;23.344;2023-09-19T05:55:18;4.03;;;3.25;;
12218;SDS011;6172;42.646;23.344;2023-09-19T05:57:50;5.03;;;3.70;;
12218;SDS011;6172;42.646;23.344;2023-09-19T06:00:24;6.28;;;3.30;;
12218;SDS011;6172;42.646;23.344;2023-09-19T06:02:52;4.50;;;3.45;;
12218;SDS011;6172;42.646;23.344;2023-09-19T06:05:20;8.90;;;4.20;;
12218;SDS011;6172;42.646;23.344;2023-09-19T06:07:47;4.75;;;3.83;;
12218;SDS011;6172;42.646;23.344;2023-09-19T06:10:15;5.63;;;3.53;;
12218;SDS011;6172;42.646;23.344;2023-09-19T06:12:42;4.35;;;3.10;;
12218;SDS011;6172;42.646;23.344;2023-09-19T06:15:14;4.68;;;3.50;;
12218;SDS011;6172;42.646;23.344;2023-09-19T06:17:46;8.40;;;4.68;;
12218;SDS011;6172;42.646;23.344;2023-09-19T06:20:14;6.63;;;3.53;;
12218;SDS011;6172;42.646;23.344;2023-09-19T06:22:42;6.22;;;3.85;;
12218;SDS011;6172;42.646;23.344;2023-09-19T06:25:09;7.30;;;4.00;;
12218;SDS011;6172;42.646;23.344;2023-09-19T06:27:40;5.57;;;4.13;;
12218;SDS011;6172;42.646;23.344;2023-09-19T06:30:09;5.32;;;3.95;;
12218;SDS011;6172;42.646;23.344;2023-09-19T06:32:39;6.30;;;3.90;;
12218;SDS011;6172;42.646;23.344;2023-09-19T06:35:09;5.15;;;3.88;;
12218;SDS011;6172;42.646;23.344;2023-09-19T06:37:43;5.07;;;3.13;;
12218;SDS011;6172;42.646;23.344;2023-09-19T06:40:11;4.55;;;3.53;;
12218;SDS011;6172;42.646;23.344;2023-09-19T06:42:41;5.65;;;3.50;;
12218;SDS011;6172;42.646;23.344;2023-09-19T06:45:12;5.75;;;3.53;;
12218;SDS011;6172;42.646;23.344;2023-09-19T06:47:43;4.95;;;3.50;;
12218;SDS011;6172;42.646;23.344;2023-09-19T06:50:10;6.30;;;3.83;;
12218;SDS011;6172;42.646;23.344;2023-09-19T06:52:38;4.32;;;3.65;;
12218;SDS011;6172;42.646;23.344;2023-09-19T06:55:06;4.75;;;3.45;;
12218;SDS011;6172;42.646;23.344;2023-09-19T06:57:34;6.00;;;4.00;;
12218;SDS011;6172;42.646;23.344;2023-09-19T07:00:01;6.55;;;3.88;;
12218;SDS011;6172;42.646;23.344;2023-09-19T07:02:35;4.63;;;3.55;;
12218;SDS011;6172;42.646;23.344;2023-09-19T07:05:02;8.52;;;3.85;;
12218;SDS011;6172;42.646;23.344;2023-09-19T07:07:30;7.47;;;4.07;;
12218;SDS011;6172;42.646;23.344;2023-09-19T07:10:00;5.55;;;3.63;;
12218;SDS011;6172;42.646;23.344;2023-09-19T07:12:26;5.20;;;4.10;;
12218;SDS011;6172;42.646;23.344;2023-09-19T07:14:53;8.25;;;3.70;;
12218;SDS011;6172;42.646;23.344;2023-09-19T07:17:20;5.95;;;4.20;;
12218;SDS011;6172;42.646;23.344;2023-09-19T07:19:51;7.32;;;4.78;;
12218;SDS011;6172;42.646;23.344;2023-09-19T07:22:17;6.28;;;3.97;;
12218;SDS011;6172;42.646;23.344;2023-09-19T07:24:45;8.15;;;5.03;;
12218;SDS011;6172;42.646;23.344;2023-09-19T07:27:14;8.15;;;5.65;;
12218;SDS011;6172;42.646;23.344;2023-09-19T07:29:41;8.95;;;4.47;;
12218;SDS011;6172;42.646;23.344;2023-09-19T07:32:08;10.40;;;4.40;;
12218;SDS011;6172;42.646;23.344;2023-09-19T07:34:37;6.97;;;4.13;;
12218;SDS011;6172;42.646;23.344;2023-09-19T07:37:07;6.35;;;4.30;;
12218;SDS011;6172;42.646;23.344;2023-09-19T07:39:34;4.93;;;3.92;;
12218;SDS011;6172;42.646;23.344;2023-09-19T07:42:01;10.40;;;5.00;;
12218;SDS011;6172;42.646;23.344;2023-09-19T07:44:29;9.93;;;4.28;;
12218;SDS011;6172;42.646;23.344;2023-09-19T07:46:56;6.00;;;3.92;;
12218;SDS011;6172;42.646;23.344;2023-09-19T07:49:23;5.45;;;3.90;;
12218;SDS011;6172;42.646;23.344;2023-09-19T07:51:50;7.30;;;3.65;;
12218;SDS011;6172;42.646;23.344;2023-09-19T07:54:21;7.07;;;4.30;;
12218;SDS011;6172;42.646;23.344;2023-09-19T07:56:48;9.43;;;4.43;;
12218;SDS011;6172;42.646;23.344;2023-09-19T07:59:15;7.95;;;4.03;;
12218;SDS011;6172;42.646;23.344;2023-09-19T08:01:42;9.30;;;4.78;;
12218;SDS011;6172;42.646;23.344;2023-09-19T08:04:14;6.15;;;4.38;;
12218;SDS011;6172;42.646;23.344;2023-09-19T08:06:41;9.40;;;4.65;;
12218;SDS011;6172;42.646;23.344;2023-09-19T08:09:11;8.18;;;5.25;;
12218;SDS011;6172;42.646;23.344;2023-09-19T08:11:47;6.95;;;4.28;;
12218;SDS011;6172;42.646;23.344;2023-09-19T08:14:15;9.93;;;4.63;;
12218;SDS011;6172;42.646;23.344;2023-09-19T08:16:42;7.80;;;4.30;;
12218;SDS011;6172;42.646;23.344;2023-09-19T08:19:09;7.90;;;4.80;;
12218;SDS011;6172;42.646;23.344;2023-09-19T08:21:37;8.32;;;4.90;;
12218;SDS011;6172;42.646;23.344;2023-09-19T08:24:04;8.35;;;4.05;;
12218;SDS011;6172;42.646;23.344;2023-09-19T08:26:31;6.97;;;4.80;;
12218;SDS011;6172;42.646;23.344;2023-09-19T08:29:04;7.05;;;4.90;;
12218;SDS011;6172;42.646;23.344;2023-09-19T08:31:35;11.95;;;6.03;;
12218;SDS011;6172;42.646;23.344;2023-09-19T08:34:02;11.88;;;5.22;;
12218;SDS011;6172;42.646;23.344;2023-09-19T08:36:29;7.65;;;4.30;;
12218;SDS011;6172;42.646;23.344;2023-09-19T08:38:57;11.23;;;4.72;;
12218;SDS011;6172;42.646;23.344;2023-09-19T08:41:25;6.65;;;4.50;;
12218;SDS011;6172;42.646;23.344;2023-09-19T08:43:52;6.72;;;4.40;;
12218;SDS011;6172;42.646;23.344;2023-09-19T08:46:21;12.35;;;5.20;;
12218;SDS011;6172;42.646;23.344;2023-09-19T08:48:54;9.43;;;4.80;;
12218;SDS011;6172;42.646;23.344;2023-09-19T08:51:30;9.13;;;5.07;;
12218;SDS011;6172;42.646;23.344;2023-09-19T08:54:06;4.97;;;4.22;;
12218;SDS011;6172;42.646;23.344;2023-09-19T08:56:35;7.63;;;4.43;;
12218;SDS011;6172;42.646;23.344;2023-09-19T08:59:04;7.05;;;5.13;;
12218;SDS011;6172;42.646;23.344;2023-09-19T09:01:35;10.55;;;5.00;;
12218;SDS011;6172;42.646;23.344;2023-09-19T09:04:02;7.40;;;4.82;;
12218;SDS011;6172;42.646;23.344;2023-09-19T09:06:34;8.07;;;4.93;;
12218;SDS011;6172;42.646;23.344;2023-09-19T09:09:02;8.98;;;4.78;;
12218;SDS011;6172;42.646;23.344;2023-09-19T09:11:30;11.80;;;4.97;;
12218;SDS011;6172;42.646;23.344;2023-09-19T09:14:02;10.27;;;5.72;;
12218;SDS011;6172;42.646;23.344;2023-09-19T09:16:29;7.85;;;5.03;;
12218;SDS011;6172;42.646;23.344;2023-09-19T09:18:58;6.28;;;4.72;;
12218;SDS011;6172;42.646;23.344;2023-09-19T09:21:25;6.60;;;4.57;;
12218;SDS011;6172;42.646;23.344;2023-09-19T09:23:53;5.63;;;4.45;;
12218;SDS011;6172;42.646;23.344;2023-09-19T09:29:05;5.68;;;3.88;;
12218;SDS011;6172;42.646;23.344;2023-09-19T09:31:38;8.38;;;4.63;;
12218;SDS011;6172;42.646;23.344;2023-09-19T09:34:51;5.03;;;3.72;;
12218;SDS011;6172;42.646;23.344;2023-09-19T09:37:26;5.40;;;4.10;;
12218;SDS011;6172;42.646;23.344;2023-09-19T09:40:13;4.63;;;3.50;;
12218;SDS011;6172;42.646;23.344;2023-09-19T09:43:02;6.50;;;3.90;;
12218;SDS011;6172;42.646;23.344;2023-09-19T09:45:29;5.68;;;3.65;;
12218;SDS011;6172;42.646;23.344;2023-09-19T09:48:02;6.70;;;5.30;;
12218;SDS011;6172;42.646;23.344;2023-09-19T09:50:33;5.90;;;3.97;;
12218;SDS011;6172;42.646;23.344;2023-09-19T09:53:25;9.80;;;4.35;;
12218;SDS011;6172;42.646;23.344;2023-09-19T09:56:16;6.88;;;4.72;;
12218;SDS011;6172;42.646;23.344;2023-09-19T09:58:49;6.50;;;4.63;;
12218;SDS011;6172;42.646;23.344;2023-09-19T10:01:48;4.93;;;3.92;;
12218;SDS011;6172;42.646;23.344;2023-09-19T10:04:29;5.03;;;3.72;;
12218;SDS011;6172;42.646;23.344;2023-09-19T10:07:31;57.72;;;9.18;;
12218;SDS011;6172;42.646;23.344;2023-09-19T10:10:04;11.80;;;4.40;;
12218;SDS011;6172;42.646;23.344;2023-09-19T10:12:51;4.53;;;3.70;;
12218;SDS011;6172;42.646;23.344;2023-09-19T10:15:31;4.90;;;4.03;;
12218;SDS011;6172;42.646;23.344;2023-09-19T10:18:01;4.95;;;4.45;;
12218;SDS011;6172;42.646;23.344;2023-09-19T10:28:37;8.25;;;3.65;;
12218;SDS011;6172;42.646;23.344;2023-09-19T10:31:05;5.78;;;3.88;;
12218;SDS011;6172;42.646;23.344;2023-09-19T10:33:39;5.93;;;4.50;;
12218;SDS011;6172;42.646;23.344;2023-09-19T10:36:09;4.65;;;3.80;;
12218;SDS011;6172;42.646;23.344;2023-09-19T10:38:39;4.55;;;4.13;;
12218;SDS011;6172;42.646;23.344;2023-09-19T10:41:11;7.50;;;4.05;;
12218;SDS011;6172;42.646;23.344;2023-09-19T10:43:44;5.72;;;5.10;;
12218;SDS011;6172;42.646;23.344;2023-09-19T10:46:14;6.97;;;4.15;;
12218;SDS011;6172;42.646;23.344;2023-09-19T10:51:29;4.57;;;4.10;;
12218;SDS011;6172;42.646;23.344;2023-09-19T10:54:04;4.50;;;3.90;;
12218;SDS011;6172;42.646;23.344;2023-09-19T10:56:37;6.85;;;3.83;;
12218;SDS011;6172;42.646;23.344;2023-09-19T11:04:55;9.95;;;4.28;;
12218;SDS011;6172;42.646;23.344;2023-09-19T11:10:43;7.03;;;4.15;;
12218;SDS011;6172;42.646;23.344;2023-09-19T11:13:24;5.20;;;4.00;;
12218;SDS011;6172;42.646;23.344;2023-09-19T11:19:07;10.27;;;4.82;;
12218;SDS011;6172;42.646;23.344;2023-09-19T11:21:52;16.88;;;5.25;;
12218;SDS011;6172;42.646;23.344;2023-09-19T11:24:30;4.65;;;4.13;;
12218;SDS011;6172;42.646;23.344;2023-09-19T11:27:10;7.13;;;4.40;;
12218;SDS011;6172;42.646;23.344;2023-09-19T11:29:42;7.82;;;4.45;;
12218;SDS011;6172;42.646;23.344;2023-09-19T11:41:41;10.40;;;4.53;;
12218;SDS011;6172;42.646;23.344;2023-09-19T11:47:04;4.65;;;4.25;;
12218;SDS011;6172;42.646;23.344;2023-09-19T11:49:35;4.18;;;3.72;;
12218;SDS011;6172;42.646;23.344;2023-09-19T11:52:07;8.10;;;4.05;;
12218;SDS011;6172;42.646;23.344;2023-09-19T11:54:36;5.00;;;4.03;;
12218;SDS011;6172;42.646;23.344;2023-09-19T11:57:09;5.20;;;3.70;;
12218;SDS011;6172;42.646;23.344;2023-09-19T11:59:39;4.97;;;4.32;;
12218;SDS011;6172;42.646;23.344;2023-09-19T12:02:07;4.63;;;4.00;;
12218;SDS011;6172;42.646;23.344;2023-09-19T12:04:41;4.00;;;3.50;;
12218;SDS011;6172;42.646;23.344;2023-09-19T12:09:45;4.05;;;3.63;;
12218;SDS011;6172;42.646;23.344;2023-09-19T12:12:21;4.82;;;3.70;;
12218;SDS011;6172;42.646;23.344;2023-09-19T12:14:53;4.22;;;3.65;;
12218;SDS011;6172;42.646;23.344;2023-09-19T12:17:34;3.72;;;3.40;;
12218;SDS011;6172;42.646;23.344;2023-09-19T12:20:01;7.72;;;3.75;;
12218;SDS011;6172;42.646;23.344;2023-09-19T12:22:41;5.57;;;3.65;;
12218;SDS011;6172;42.646;23.344;2023-09-19T12:25:09;8.10;;;4.15;;
12218;SDS011;6172;42.646;23.344;2023-09-19T12:27:42;4.57;;;3.78;;
12218;SDS011;6172;42.646;23.344;2023-09-19T12:30:12;6.07;;;4.00;;
12218;SDS011;6172;42.646;23.344;2023-09-19T12:32:40;3.83;;;3.47;;
12218;SDS011;6172;42.646;23.344;2023-09-19T12:35:09;4.32;;;3.53;;
12218;SDS011;6172;42.646;23.344;2023-09-19T12:37:42;5.45;;;3.80;;
12218;SDS011;6172;42.646;23.344;2023-09-19T12:40:13;4.03;;;3.58;;
12218;SDS011;6172;42.646;23.344;2023-09-19T12:42:56;4.03;;;3.30;;
12218;SDS011;6172;42.646;23.344;2023-09-19T12:45:40;4.25;;;3.72;;
12218;SDS011;6172;42.646;23.344;2023-09-19T12:48:20;7.80;;;3.55;;
12218;SDS011;6172;42.646;23.344;2023-09-19T12:51:00;4.05;;;3.70;;
12218;SDS011;6172;42.646;23.344;2023-09-19T12:53:34;7.63;;;4.20;;
12218;SDS011;6172;42.646;23.344;2023-09-19T12:56:05;5.43;;;3.65;;
12218;SDS011;6172;42.646;23.344;2023-09-19T12:58:36;4.43;;;3.75;;
12218;SDS011;6172;42.646;23.344;2023-09-19T13:01:15;7.40;;;4.68;;
12218;SDS011;6172;42.646;23.344;2023-09-19T13:03:43;3.97;;;3.65;;
12218;SDS011;6172;42.646;23.344;2023-09-19T13:06:11;5.05;;;3.97;;
12218;SDS011;6172;42.646;23.344;2023-09-19T13:09:08;5.63;;;3.63;;
12218;SDS011;6172;42.646;23.344;2023-09-19T13:11:40;6.10;;;3.63;;
12218;SDS011;6172;42.646;23.344;2023-09-19T13:14:22;4.32;;;3.35;;
12218;SDS011;6172;42.646;23.344;2023-09-19T13:16:57;5.28;;;3.72;;
12218;SDS011;6172;42.646;23.344;2023-09-19T13:20:19;4.57;;;3.33;;
12218;SDS011;6172;42.646;23.344;2023-09-19T13:22:49;4.95;;;3.90;;
12218;SDS011;6172;42.646;23.344;2023-09-19T13:25:19;3.45;;;3.15;;
12218;SDS011;6172;42.646;23.344;2023-09-19T13:27:48;3.35;;;3.00;;
12218;SDS011;6172;42.646;23.344;2023-09-19T13:30:19;4.18;;;3.47;;
12218;SDS011;6172;42.646;23.344;2023-09-19T13:32:48;4.75;;;3.85;;
12218;SDS011;6172;42.646;23.344;2023-09-19T13:35:18;4.30;;;3.47;;
12218;SDS011;6172;42.646;23.344;2023-09-19T13:37:46;4.35;;;3.63;;
12218;SDS011;6172;42.646;23.344;2023-09-19T13:40:16;6.88;;;3.80;;
12218;SDS011;6172;42.646;23.344;2023-09-19T13:42:43;3.95;;;3.33;;
12218;SDS011;6172;42.646;23.344;2023-09-19T13:45:11;5.22;;;3.25;;
12218;SDS011;6172;42.646;23.344;2023-09-19T13:47:52;4.25;;;3.70;;
12218;SDS011;6172;42.646;23.344;2023-09-19T13:50:20;4.72;;;3.75;;
12218;SDS011;6172;42.646;23.344;2023-09-19T13:52:49;7.28;;;5.05;;
12218;SDS011;6172;42.646;23.344;2023-09-19T13:55:16;13.43;;;10.18;;
12218;SDS011;6172;42.646;23.344;2023-09-19T14:00:38;5.93;;;4.45;;
12218;SDS011;6172;42.646;23.344;2023-09-19T14:03:08;5.30;;;3.92;;
12218;SDS011;6172;42.646;23.344;2023-09-19T14:08:24;22.17;;;16.05;;
12218;SDS011;6172;42.646;23.344;2023-09-19T14:10:56;25.42;;;21.48;;
12218;SDS011;6172;42.646;23.344;2023-09-19T14:13:24;24.65;;;20.13;;
12218;SDS011;6172;42.646;23.344;2023-09-19T14:15:53;18.98;;;16.98;;
12218;SDS011;6172;42.646;23.344;2023-09-19T14:18:26;13.38;;;11.88;;
12218;SDS011;6172;42.646;23.344;2023-09-19T14:20:55;11.38;;;9.43;;
12218;SDS011;6172;42.646;23.344;2023-09-19T14:23:24;8.43;;;7.47;;
12218;SDS011;6172;42.646;23.344;2023-09-19T14:25:53;8.97;;;6.37;;
12218;SDS011;6172;42.646;23.344;2023-09-19T14:28:22;6.93;;;6.22;;
12218;SDS011;6172;42.646;23.344;2023-09-19T14:30:51;7.72;;;5.60;;
12218;SDS011;6172;42.646;23.344;2023-09-19T14:33:19;7.43;;;5.10;;
12218;SDS011;6172;42.646;23.344;2023-09-19T14:38:51;6.18;;;3.60;;
12218;SDS011;6172;42.646;23.344;2023-09-19T14:41:25;5.95;;;4.25;;
12218;SDS011;6172;42.646;23.344;2023-09-19T14:43:53;4.55;;;4.00;;
12218;SDS011;6172;42.646;23.344;2023-09-19T14:46:22;5.28;;;3.72;;
12218;SDS011;6172;42.646;23.344;2023-09-19T14:48:51;4.88;;;4.35;;
12218;SDS011;6172;42.646;23.344;2023-09-19T14:51:21;7.05;;;4.25;;
12218;SDS011;6172;42.646;23.344;2023-09-19T14:53:50;5.60;;;4.32;;
12218;SDS011;6172;42.646;23.344;2023-09-19T14:56:18;8.68;;;7.32;;
12218;SDS011;6172;42.646;23.344;2023-09-19T14:58:47;12.10;;;8.10;;
12218;SDS011;6172;42.646;23.344;2023-09-19T15:03:52;9.95;;;8.18;;
12218;SDS011;6172;42.646;23.344;2023-09-19T15:06:22;11.35;;;6.88;;
12218;SDS011;6172;42.646;23.344;2023-09-19T15:08:49;6.90;;;5.78;;
12218;SDS011;6172;42.646;23.344;2023-09-19T15:11:18;6.45;;;5.70;;
12218;SDS011;6172;42.646;23.344;2023-09-19T15:13:46;8.02;;;6.00;;
12218;SDS011;6172;42.646;23.344;2023-09-19T15:16:24;9.05;;;5.50;;
12218;SDS011;6172;42.646;23.344;2023-09-19T15:18:52;7.30;;;5.35;;
12218;SDS011;6172;42.646;23.344;2023-09-19T15:21:22;9.50;;;5.68;;
12218;SDS011;6172;42.646;23.344;2023-09-19T15:23:50;7.85;;;5.70;;
12218;SDS011;6172;42.646;23.344;2023-09-19T15:26:17;8.57;;;5.75;;
12218;SDS011;6172;42.646;23.344;2023-09-19T15:28:46;8.38;;;5.75;;
12218;SDS011;6172;42.646;23.344;2023-09-19T15:31:19;5.63;;;5.13;;
12218;SDS011;6172;42.646;23.344;2023-09-19T15:33:47;6.18;;;5.43;;
12218;SDS011;6172;42.646;23.344;2023-09-19T15:36:17;10.93;;;6.38;;
12218;SDS011;6172;42.646;23.344;2023-09-19T15:41:36;8.10;;;4.78;;
12218;SDS011;6172;42.646;23.344;2023-09-19T15:44:11;4.93;;;4.38;;
12218;SDS011;6172;42.646;23.344;2023-09-19T15:46:40;5.18;;;4.70;;
12218;SDS011;6172;42.646;23.344;2023-09-19T15:49:09;5.50;;;4.78;;
12218;SDS011;6172;42.646;23.344;2023-09-19T15:51:37;6.13;;;4.03;;
12218;SDS011;6172;42.646;23.344;2023-09-19T15:57:00;8.80;;;5.40;;
12218;SDS011;6172;42.646;23.344;2023-09-19T16:00:07;8.95;;;5.18;;
12218;SDS011;6172;42.646;23.344;2023-09-19T16:02:39;9.40;;;4.93;;
12218;SDS011;6172;42.646;23.344;2023-09-19T16:05:06;5.93;;;5.15;;